Time;durP1;ratioP1;P1;durP2;ratioP2;P2;SDS_P1;SDS_P2;PMS_P1;PMS_P2;Temp;Humidity;BMP_temperature;BMP_pressure;BME280_temperature;BME280_humidity;BME280_pressure;Samples;Min_cycle;Max_cycle;Signal;HPM_P1;HPM_P2
2021/12/28 00:00:16;;;;;;;168.60;63.33;;;;;;;;;;5108760;28;20461;-61
2021/12/28 00:02:45;;;;;;;200.98;62.72;;;;;;;;;;5087698;28;20400;-61
2021/12/28 00:05:11;;;;;;;178.57;63.17;;;;;;;;;;5071342;28;20131;-61
2021/12/28 00:07:38;;;;;;;179.38;62.10;;;;;;;;;;5073605;28;20047;-61
2021/12/28 00:10:05;;;;;;;162.77;61.30;;;;;;;;;;5073698;28;20431;-61
2021/12/28 00:12:34;;;;;;;167.98;59.40;;;;;;;;;;5071224;28;20056;-61
2021/12/28 00:15:07;;;;;;;195.93;63.38;;;;;;;;;;5072099;28;20056;-61
2021/12/28 00:20:19;;;;;;;183.50;62.05;;;;;;;;;;5085980;28;20080;-61
2021/12/28 00:22:45;;;;;;;191.52;65.47;;;;;;;;;;5079363;28;20074;-61
2021/12/28 00:25:11;;;;;;;172.98;61.92;;;;;;;;;;5073558;28;20063;-61
2021/12/28 00:27:38;;;;;;;178.10;64.22;;;;;;;;;;5072825;28;20094;-61
2021/12/28 00:30:05;;;;;;;181.15;63.38;;;;;;;;;;5072335;28;20143;-61
2021/12/28 00:32:31;;;;;;;178.75;64.80;;;;;;;;;;5073215;28;20107;-61
2021/12/28 00:34:57;;;;;;;192.75;65.05;;;;;;;;;;5073071;28;20045;-61
2021/12/28 00:37:24;;;;;;;201.50;66.88;;;;;;;;;;5076668;28;20554;-61
2021/12/28 00:39:50;;;;;;;212.40;68.60;;;;;;;;;;5071800;28;20159;-61
2021/12/28 00:42:16;;;;;;;194.18;67.43;;;;;;;;;;5072191;28;20119;-61
2021/12/28 00:44:42;;;;;;;202.55;68.97;;;;;;;;;;5073201;28;20420;-61
2021/12/28 00:47:08;;;;;;;238.55;72.18;;;;;;;;;;5076347;28;20050;-61
2021/12/28 00:49:34;;;;;;;239.85;74.28;;;;;;;;;;5086103;28;20075;-61
2021/12/28 00:52:01;;;;;;;285.30;75.43;;;;;;;;;;5094236;28;20356;-61
2021/12/28 00:54:27;;;;;;;227.45;72.25;;;;;;;;;;5084926;28;20127;-61
2021/12/28 00:56:53;;;;;;;238.30;76.70;;;;;;;;;;5081632;28;20119;-61
2021/12/28 00:59:19;;;;;;;249.25;76.40;;;;;;;;;;5078117;28;20049;-61
2021/12/28 01:01:47;;;;;;;286.73;78.72;;;;;;;;;;5089078;28;20131;-61
2021/12/28 01:04:13;;;;;;;316.55;81.63;;;;;;;;;;5092715;28;20491;-61
2021/12/28 01:06:39;;;;;;;339.08;83.43;;;;;;;;;;5091829;28;20048;-61
2021/12/28 01:09:05;;;;;;;335.15;82.15;;;;;;;;;;5075932;28;20483;-61
2021/12/28 01:11:32;;;;;;;275.63;79.10;;;;;;;;;;5071114;28;20140;-61
2021/12/28 01:13:58;;;;;;;287.98;79.50;;;;;;;;;;5085218;28;20076;-61
2021/12/28 01:16:24;;;;;;;341.48;87.40;;;;;;;;;;5091889;28;20051;-61
2021/12/28 01:18:50;;;;;;;349.58;85.90;;;;;;;;;;5093066;28;20048;-61
2021/12/28 01:21:18;;;;;;;337.38;85.43;;;;;;;;;;5092638;28;20050;-61
2021/12/28 01:23:44;;;;;;;328.52;85.60;;;;;;;;;;5091988;28;20052;-61
2021/12/28 01:26:10;;;;;;;315.10;81.68;;;;;;;;;;5089121;28;20040;-61
2021/12/28 01:28:37;;;;;;;320.10;81.57;;;;;;;;;;5072277;28;20043;-61
2021/12/28 01:31:03;;;;;;;407.55;90.28;;;;;;;;;;5070207;28;20137;-61
2021/12/28 01:33:30;;;;;;;439.70;94.60;;;;;;;;;;5072195;28;20437;-61
2021/12/28 01:35:56;;;;;;;387.33;86.93;;;;;;;;;;5088544;28;20051;-61
2021/12/28 01:38:22;;;;;;;424.55;93.57;;;;;;;;;;5091926;28;20040;-61
2021/12/28 01:40:49;;;;;;;462.35;97.43;;;;;;;;;;5091077;28;20051;-61
2021/12/28 01:43:18;;;;;;;437.17;90.78;;;;;;;;;;5084011;28;20084;-61
2021/12/28 01:45:46;;;;;;;534.92;100.88;;;;;;;;;;5091664;28;20127;-61
2021/12/28 01:48:14;;;;;;;465.10;92.82;;;;;;;;;;5090390;28;20082;-61
2021/12/28 01:50:40;;;;;;;563.38;101.40;;;;;;;;;;5089716;28;20454;-61
2021/12/28 01:53:07;;;;;;;468.55;90.38;;;;;;;;;;5092091;28;20047;-61
2021/12/28 01:55:34;;;;;;;715.83;107.80;;;;;;;;;;5091564;28;20089;-61
2021/12/28 01:58:01;;;;;;;595.28;103.95;;;;;;;;;;5089986;28;20372;-61
2021/12/28 02:00:27;;;;;;;652.08;104.13;;;;;;;;;;5086818;28;20458;-61
2021/12/28 02:02:53;;;;;;;669.70;104.78;;;;;;;;;;5081510;28;20043;-61
2021/12/28 02:05:19;;;;;;;903.60;119.45;;;;;;;;;;5084494;28;20372;-61
2021/12/28 02:07:45;;;;;;;713.97;108.65;;;;;;;;;;5086035;28;20039;-61
2021/12/28 02:10:12;;;;;;;744.72;104.50;;;;;;;;;;5089794;28;20408;-61
2021/12/28 02:12:38;;;;;;;552.42;96.85;;;;;;;;;;5090502;28;20142;-61
2021/12/28 02:15:07;;;;;;;754.10;105.35;;;;;;;;;;5085562;28;20451;-61
2021/12/28 02:17:34;;;;;;;613.03;96.70;;;;;;;;;;5087177;28;20392;-61
2021/12/28 02:20:03;;;;;;;401.75;81.28;;;;;;;;;;5070987;28;20052;-61
2021/12/28 02:22:29;;;;;;;465.13;86.82;;;;;;;;;;5075306;28;20047;-61
2021/12/28 02:24:55;;;;;;;570.30;92.38;;;;;;;;;;5074099;28;20047;-61
2021/12/28 02:27:21;;;;;;;430.92;83.63;;;;;;;;;;5091208;28;20407;-61
2021/12/28 02:29:48;;;;;;;391.95;79.10;;;;;;;;;;5091961;28;20067;-61
2021/12/28 02:32:14;;;;;;;661.22;98.50;;;;;;;;;;5092079;28;20089;-61
2021/12/28 02:34:40;;;;;;;570.85;91.47;;;;;;;;;;5086022;28;20123;-61
2021/12/28 02:37:06;;;;;;;449.50;79.60;;;;;;;;;;5079994;28;20061;-61
2021/12/28 02:39:32;;;;;;;404.95;77.53;;;;;;;;;;5082121;28;20040;-61
2021/12/28 02:41:58;;;;;;;403.08;76.28;;;;;;;;;;5087559;28;20044;-61
2021/12/28 02:44:24;;;;;;;396.75;74.88;;;;;;;;;;5085597;28;20455;-61
2021/12/28 02:46:50;;;;;;;546.72;85.07;;;;;;;;;;5088600;28;20079;-61
2021/12/28 02:49:17;;;;;;;389.98;71.20;;;;;;;;;;5083824;28;20082;-61
2021/12/28 02:51:43;;;;;;;410.50;71.78;;;;;;;;;;5087807;28;20048;-61
2021/12/28 02:54:09;;;;;;;364.45;69.00;;;;;;;;;;5087815;28;20044;-61
2021/12/28 02:56:35;;;;;;;387.33;72.57;;;;;;;;;;5079409;28;20040;-61
2021/12/28 02:59:02;;;;;;;433.10;72.00;;;;;;;;;;5088647;28;20063;-61
2021/12/28 03:01:29;;;;;;;377.05;69.43;;;;;;;;;;5086536;28;20123;-61
2021/12/28 03:04:03;;;;;;;343.15;66.50;;;;;;;;;;5093113;28;20044;-61
2021/12/28 03:06:29;;;;;;;414.38;72.43;;;;;;;;;;5091489;28;20044;-61
2021/12/28 03:08:56;;;;;;;345.90;69.13;;;;;;;;;;5086877;28;20066;-61
2021/12/28 03:11:24;;;;;;;364.33;69.13;;;;;;;;;;5089559;28;20040;-61
2021/12/28 03:13:51;;;;;;;401.02;69.05;;;;;;;;;;5085132;28;20051;-61
2021/12/28 03:16:18;;;;;;;315.08;64.80;;;;;;;;;;5087744;28;20141;-61
2021/12/28 03:18:44;;;;;;;267.52;60.70;;;;;;;;;;5083898;28;20044;-61
2021/12/28 03:21:12;;;;;;;286.77;61.55;;;;;;;;;;5087130;28;20048;-61
2021/12/28 03:23:39;;;;;;;307.63;65.07;;;;;;;;;;5083234;28;20039;-61
2021/12/28 03:26:06;;;;;;;294.70;63.67;;;;;;;;;;5089741;28;20036;-61
2021/12/28 03:28:33;;;;;;;264.77;62.35;;;;;;;;;;5091047;28;20419;-61
2021/12/28 03:31:00;;;;;;;330.90;66.85;;;;;;;;;;5087282;28;20040;-61
2021/12/28 03:33:28;;;;;;;270.13;61.42;;;;;;;;;;5090690;28;20115;-61
2021/12/28 03:35:55;;;;;;;252.70;59.33;;;;;;;;;;5097916;28;20044;-61
2021/12/28 03:38:21;;;;;;;274.52;63.90;;;;;;;;;;5080240;28;20079;-61
2021/12/28 03:40:47;;;;;;;243.32;59.75;;;;;;;;;;5093410;28;20119;-61
2021/12/28 03:43:14;;;;;;;248.43;58.38;;;;;;;;;;5091837;28;20419;-62
2021/12/28 03:45:40;;;;;;;278.45;59.50;;;;;;;;;;5083225;28;20075;-61
2021/12/28 03:48:06;;;;;;;280.00;62.63;;;;;;;;;;5074205;28;20080;-61
2021/12/28 03:50:33;;;;;;;275.98;58.92;;;;;;;;;;5084564;28;20412;-61
2021/12/28 03:53:00;;;;;;;393.40;66.65;;;;;;;;;;5094656;28;20067;-61
2021/12/28 03:55:26;;;;;;;384.33;66.95;;;;;;;;;;5084432;28;20052;-61
2021/12/28 03:57:55;;;;;;;452.75;70.57;;;;;;;;;;5071852;28;20056;-61
2021/12/28 04:00:22;;;;;;;524.35;77.10;;;;;;;;;;5073076;28;20059;-61
2021/12/28 04:02:48;;;;;;;550.92;81.10;;;;;;;;;;5073940;28;20032;-61
2021/12/28 04:05:16;;;;;;;734.13;86.90;;;;;;;;;;5073437;28;20384;-61
2021/12/28 04:07:42;;;;;;;468.38;75.22;;;;;;;;;;5093279;28;20055;-61
2021/12/28 04:10:10;;;;;;;591.78;81.05;;;;;;;;;;5094231;28;20044;-61
2021/12/28 04:12:37;;;;;;;752.20;90.90;;;;;;;;;;5093257;28;20464;-61
2021/12/28 04:15:04;;;;;;;832.70;93.20;;;;;;;;;;5091652;28;20043;-61
2021/12/28 04:17:31;;;;;;;413.77;72.10;;;;;;;;;;5092928;28;20461;-61
2021/12/28 04:19:57;;;;;;;523.85;78.22;;;;;;;;;;5091635;28;20059;-61
2021/12/28 04:22:23;;;;;;;454.90;74.15;;;;;;;;;;5085559;28;20028;-61
2021/12/28 04:24:50;;;;;;;367.95;70.95;;;;;;;;;;5077914;28;20222;-61
2021/12/28 04:27:16;;;;;;;406.45;71.38;;;;;;;;;;5080862;28;20036;-61
2021/12/28 04:29:42;;;;;;;418.35;71.28;;;;;;;;;;5080188;28;20564;-61
2021/12/28 04:32:08;;;;;;;390.00;68.20;;;;;;;;;;5078226;28;20094;-61
2021/12/28 04:34:35;;;;;;;378.73;69.45;;;;;;;;;;5077799;28;20127;-62
2021/12/28 04:37:01;;;;;;;402.85;68.85;;;;;;;;;;5077300;28;20090;-61
2021/12/28 04:39:27;;;;;;;430.67;70.40;;;;;;;;;;5088133;28;20071;-61
2021/12/28 04:41:53;;;;;;;460.83;71.80;;;;;;;;;;5091906;28;20058;-61
2021/12/28 04:44:24;;;;;;;495.05;75.75;;;;;;;;;;5091965;28;20036;-61
2021/12/28 04:46:50;;;;;;;442.27;71.53;;;;;;;;;;5080560;28;20044;-61
2021/12/28 04:49:17;;;;;;;428.45;70.85;;;;;;;;;;5087033;28;20403;-61
2021/12/28 04:51:44;;;;;;;503.70;77.28;;;;;;;;;;5084952;28;20115;-61
2021/12/28 04:54:12;;;;;;;437.40;69.57;;;;;;;;;;5057529;28;20392;-61
2021/12/28 04:56:39;;;;;;;383.33;67.70;;;;;;;;;;5081051;28;20192;-62
2021/12/28 04:59:07;;;;;;;402.50;70.00;;;;;;;;;;5086209;28;20055;-61
2021/12/28 05:01:36;;;;;;;442.42;70.95;;;;;;;;;;5092057;28;20048;-61
2021/12/28 05:04:02;;;;;;;387.33;65.75;;;;;;;;;;5092901;28;20108;-61
2021/12/28 05:06:29;;;;;;;392.70;63.15;;;;;;;;;;5092987;28;20048;-61
2021/12/28 05:08:55;;;;;;;497.67;74.10;;;;;;;;;;5074984;28;20468;-61
2021/12/28 05:11:21;;;;;;;361.48;65.38;;;;;;;;;;5075889;28;20379;-61
2021/12/28 05:13:47;;;;;;;438.17;71.47;;;;;;;;;;5072290;28;20044;-61
2021/12/28 05:16:15;;;;;;;377.83;64.57;;;;;;;;;;5071668;28;20091;-61
2021/12/28 05:18:42;;;;;;;415.67;68.32;;;;;;;;;;5073821;28;20436;-61
2021/12/28 05:21:08;;;;;;;342.70;62.00;;;;;;;;;;5092343;28;20096;-61
2021/12/28 05:23:34;;;;;;;273.45;59.20;;;;;;;;;;5087117;28;20036;-62
2021/12/28 05:26:00;;;;;;;270.95;56.95;;;;;;;;;;5073213;28;20073;-62
2021/12/28 05:28:26;;;;;;;290.05;59.15;;;;;;;;;;5087373;28;20044;-61
2021/12/28 05:30:53;;;;;;;332.35;61.88;;;;;;;;;;5089576;28;20097;-61
2021/12/28 05:33:19;;;;;;;372.92;64.85;;;;;;;;;;5087075;28;20043;-61
2021/12/28 05:35:45;;;;;;;290.38;55.25;;;;;;;;;;5091232;28;20126;-61
2021/12/28 05:38:12;;;;;;;242.07;53.60;;;;;;;;;;5085795;28;20605;-61
2021/12/28 05:40:39;;;;;;;246.75;55.17;;;;;;;;;;5091679;28;20043;-61
2021/12/28 05:43:05;;;;;;;321.42;59.83;;;;;;;;;;5082461;28;20115;-61
2021/12/28 05:45:32;;;;;;;211.18;52.92;;;;;;;;;;5090763;28;20035;-61
2021/12/28 05:47:58;;;;;;;228.82;55.55;;;;;;;;;;5087625;28;20048;-62
2021/12/28 05:50:24;;;;;;;222.68;53.13;;;;;;;;;;5089106;28;20535;-61
2021/12/28 05:52:50;;;;;;;231.65;54.90;;;;;;;;;;5091407;28;20544;-61
2021/12/28 05:55:16;;;;;;;237.35;53.50;;;;;;;;;;5090833;28;20492;-61
2021/12/28 05:57:43;;;;;;;224.38;52.60;;;;;;;;;;5083252;28;20492;-61
2021/12/28 06:00:10;;;;;;;208.93;51.90;;;;;;;;;;5090220;28;20046;-61
2021/12/28 06:02:36;;;;;;;248.70;55.30;;;;;;;;;;5089064;28;20472;-61
2021/12/28 06:05:03;;;;;;;243.35;55.90;;;;;;;;;;5081356;28;20040;-61
2021/12/28 06:07:29;;;;;;;276.75;55.78;;;;;;;;;;5091265;28;20532;-61
2021/12/28 06:09:56;;;;;;;257.77;52.78;;;;;;;;;;5086736;28;20044;-61
2021/12/28 06:12:22;;;;;;;263.73;55.97;;;;;;;;;;5090217;28;20514;-61
2021/12/28 06:14:48;;;;;;;253.18;56.80;;;;;;;;;;5090331;28;20476;-61
2021/12/28 06:17:14;;;;;;;293.17;58.55;;;;;;;;;;5088167;28;20055;-61
2021/12/28 06:19:40;;;;;;;236.00;54.55;;;;;;;;;;5092529;28;20085;-61
2021/12/28 06:22:06;;;;;;;238.65;53.83;;;;;;;;;;5088865;28;20530;-61
2021/12/28 06:24:33;;;;;;;225.88;54.10;;;;;;;;;;5098153;28;20106;-61
2021/12/28 06:26:59;;;;;;;209.45;54.92;;;;;;;;;;5099449;28;20044;-61
2021/12/28 06:29:25;;;;;;;240.25;57.72;;;;;;;;;;5099290;28;20036;-62
2021/12/28 06:31:51;;;;;;;260.98;59.05;;;;;;;;;;5099156;28;20052;-61
2021/12/28 06:34:17;;;;;;;225.95;57.13;;;;;;;;;;5084564;28;20551;-62
2021/12/28 06:36:44;;;;;;;240.52;60.13;;;;;;;;;;5077631;28;20139;-61
2021/12/28 06:39:10;;;;;;;262.80;61.10;;;;;;;;;;5083015;28;20075;-61
2021/12/28 06:41:38;;;;;;;214.68;56.05;;;;;;;;;;5094920;28;20586;-61
2021/12/28 06:44:05;;;;;;;254.38;59.00;;;;;;;;;;5094923;28;20403;-61
2021/12/28 06:46:31;;;;;;;280.63;61.72;;;;;;;;;;5092726;28;20105;-61
2021/12/28 06:48:57;;;;;;;244.10;59.22;;;;;;;;;;5089579;28;20105;-61
2021/12/28 06:51:24;;;;;;;211.63;57.88;;;;;;;;;;5095401;28;20048;-61
2021/12/28 06:53:50;;;;;;;202.23;56.50;;;;;;;;;;5082392;28;20086;-61
2021/12/28 06:56:16;;;;;;;216.80;56.50;;;;;;;;;;5084649;28;20063;-61
2021/12/28 06:58:42;;;;;;;223.88;58.78;;;;;;;;;;5085066;28;20131;-61
2021/12/28 07:01:08;;;;;;;254.95;59.50;;;;;;;;;;5074646;28;20044;-61
2021/12/28 07:03:35;;;;;;;202.32;55.92;;;;;;;;;;5081462;28;20032;-67
2021/12/28 07:06:02;;;;;;;202.90;55.70;;;;;;;;;;5091876;28;20044;-61
2021/12/28 07:08:28;;;;;;;187.75;52.10;;;;;;;;;;5084522;28;20045;-61
2021/12/28 07:10:54;;;;;;;196.48;55.03;;;;;;;;;;5089063;28;20051;-62
2021/12/28 07:13:21;;;;;;;151.25;50.75;;;;;;;;;;5084789;28;20047;-61
2021/12/28 07:15:47;;;;;;;141.80;48.25;;;;;;;;;;5089441;28;20050;-62
2021/12/28 07:18:13;;;;;;;142.38;47.28;;;;;;;;;;5093883;28;20044;-61
2021/12/28 07:20:39;;;;;;;162.38;47.78;;;;;;;;;;5092082;28;20044;-61
2021/12/28 07:23:05;;;;;;;155.20;49.28;;;;;;;;;;5090128;28;20044;-62
2021/12/28 07:25:32;;;;;;;130.13;45.25;;;;;;;;;;5080302;28;20048;-62
2021/12/28 07:27:58;;;;;;;126.22;43.08;;;;;;;;;;5090193;28;20050;-62
2021/12/28 07:30:24;;;;;;;130.48;43.08;;;;;;;;;;5091801;28;20491;-62
2021/12/28 07:32:51;;;;;;;106.25;41.08;;;;;;;;;;5073846;28;20403;-63
2021/12/28 07:35:17;;;;;;;121.13;41.42;;;;;;;;;;5085463;28;20499;-63
2021/12/28 07:37:43;;;;;;;115.20;42.30;;;;;;;;;;5084645;28;20360;-63
2021/12/28 07:40:09;;;;;;;113.00;39.22;;;;;;;;;;5083588;28;20111;-61
2021/12/28 07:42:36;;;;;;;106.75;38.20;;;;;;;;;;5089111;28;20059;-63
2021/12/28 07:45:04;;;;;;;88.97;35.05;;;;;;;;;;5094509;28;20047;-62
2021/12/28 07:47:30;;;;;;;90.50;35.33;;;;;;;;;;5093313;28;20097;-62
2021/12/28 07:49:56;;;;;;;94.45;35.40;;;;;;;;;;5085701;28;20044;-63
2021/12/28 07:52:22;;;;;;;98.20;35.22;;;;;;;;;;5083037;28;20056;-61
2021/12/28 07:54:50;;;;;;;90.32;30.65;;;;;;;;;;5072908;28;20036;-62
2021/12/28 07:57:16;;;;;;;77.20;29.88;;;;;;;;;;5073999;28;20054;-66
2021/12/28 07:59:42;;;;;;;68.85;27.95;;;;;;;;;;5072519;28;20044;-62
2021/12/28 08:02:08;;;;;;;57.40;26.90;;;;;;;;;;5073913;28;20118;-69
2021/12/28 08:04:35;;;;;;;76.40;27.55;;;;;;;;;;5079825;28;20054;-62
2021/12/28 08:07:01;;;;;;;73.13;27.15;;;;;;;;;;5090174;28;20048;-61
2021/12/28 08:09:27;;;;;;;64.97;25.60;;;;;;;;;;5084941;28;20036;-63
2021/12/28 08:11:53;;;;;;;54.10;24.67;;;;;;;;;;5084622;28;20460;-66
2021/12/28 08:14:19;;;;;;;60.92;24.48;;;;;;;;;;5082237;28;20136;-63
2021/12/28 08:16:45;;;;;;;56.78;22.23;;;;;;;;;;5082815;28;20051;-61
2021/12/28 08:19:12;;;;;;;71.70;23.65;;;;;;;;;;5082858;28;20095;-61
2021/12/28 08:21:38;;;;;;;58.15;22.95;;;;;;;;;;5089076;28;20480;-61
2021/12/28 08:24:04;;;;;;;54.85;21.23;;;;;;;;;;5093921;28;20051;-61
2021/12/28 08:26:30;;;;;;;55.38;21.52;;;;;;;;;;5076608;28;20045;-61
2021/12/28 08:28:57;;;;;;;48.38;20.45;;;;;;;;;;5099251;28;20138;-61
2021/12/28 08:31:23;;;;;;;59.15;20.58;;;;;;;;;;5074494;28;20458;-62
2021/12/28 08:33:49;;;;;;;48.25;19.52;;;;;;;;;;5082021;28;20094;-61
2021/12/28 08:36:15;;;;;;;40.20;18.92;;;;;;;;;;5076443;28;20222;-61
2021/12/28 08:38:43;;;;;;;45.30;18.38;;;;;;;;;;5077290;28;20041;-61
2021/12/28 08:41:10;;;;;;;43.20;17.83;;;;;;;;;;5073163;28;20055;-61
2021/12/28 08:43:36;;;;;;;41.72;17.55;;;;;;;;;;5078947;28;20568;-61
2021/12/28 08:46:03;;;;;;;43.83;16.30;;;;;;;;;;5078729;28;20077;-62
2021/12/28 08:48:29;;;;;;;43.00;16.50;;;;;;;;;;5086725;28;20053;-61
2021/12/28 08:50:56;;;;;;;37.30;16.60;;;;;;;;;;5073128;28;20084;-62
2021/12/28 08:53:22;;;;;;;43.08;16.05;;;;;;;;;;5075440;28;20376;-61
2021/12/28 08:55:48;;;;;;;48.08;16.13;;;;;;;;;;5089195;28;20044;-61
2021/12/28 08:58:15;;;;;;;43.28;17.38;;;;;;;;;;5086522;28;20123;-62
2021/12/28 09:00:41;;;;;;;47.92;16.50;;;;;;;;;;5073333;28;20048;-61
2021/12/28 09:03:08;;;;;;;42.92;16.40;;;;;;;;;;5092832;28;20502;-62
2021/12/28 09:05:37;;;;;;;46.42;17.23;;;;;;;;;;5087566;28;20044;-63
2021/12/28 09:08:06;;;;;;;38.92;15.60;;;;;;;;;;5076589;28;20045;-62
2021/12/28 09:10:32;;;;;;;32.70;14.88;;;;;;;;;;5085126;28;20050;-62
2021/12/28 09:12:58;;;;;;;33.30;15.15;;;;;;;;;;5090883;28;20051;-68
2021/12/28 09:15:25;;;;;;;44.50;18.35;;;;;;;;;;5085449;28;20040;-63
2021/12/28 09:17:51;;;;;;;33.50;14.35;;;;;;;;;;5078940;28;20426;-61
2021/12/28 09:20:19;;;;;;;40.08;16.35;;;;;;;;;;5083553;28;20050;-61
2021/12/28 09:22:45;;;;;;;36.40;16.95;;;;;;;;;;5083526;28;20503;-68
2021/12/28 09:25:14;;;;;;;30.10;16.17;;;;;;;;;;5079956;28;20051;-63
2021/12/28 09:27:41;;;;;;;44.05;17.42;;;;;;;;;;5080897;28;20055;-61
2021/12/28 09:30:08;;;;;;;40.65;16.52;;;;;;;;;;5086767;28;20393;-61
2021/12/28 09:32:35;;;;;;;38.22;17.58;;;;;;;;;;5089175;28;20047;-61
2021/12/28 09:35:01;;;;;;;38.10;17.38;;;;;;;;;;5082605;28;20044;-62
2021/12/28 09:37:27;;;;;;;35.22;16.67;;;;;;;;;;5094178;28;20082;-60
2021/12/28 09:39:54;;;;;;;36.67;17.88;;;;;;;;;;5078742;28;20044;-61
2021/12/28 09:42:20;;;;;;;48.05;19.75;;;;;;;;;;5086274;28;20055;-61
2021/12/28 09:44:49;;;;;;;41.60;17.92;;;;;;;;;;5084967;28;20036;-61
2021/12/28 09:47:16;;;;;;;44.75;20.42;;;;;;;;;;5087354;28;20411;-65
2021/12/28 09:49:42;;;;;;;34.22;19.08;;;;;;;;;;5088190;28;20055;-61
2021/12/28 09:52:08;;;;;;;51.92;20.70;;;;;;;;;;5084691;28;20085;-61
2021/12/28 09:54:34;;;;;;;36.38;21.02;;;;;;;;;;5086206;28;20387;-61
2021/12/28 09:57:01;;;;;;;51.78;20.80;;;;;;;;;;5085161;28;20507;-61
2021/12/28 09:59:28;;;;;;;45.75;20.98;;;;;;;;;;5085641;28;20040;-61
2021/12/28 10:01:54;;;;;;;43.33;20.15;;;;;;;;;;5090743;28;20101;-61
2021/12/28 10:04:20;;;;;;;41.95;21.10;;;;;;;;;;5092976;28;20487;-61
2021/12/28 10:06:47;;;;;;;64.53;24.55;;;;;;;;;;5092119;28;20066;-66
2021/12/28 10:09:14;;;;;;;67.85;24.63;;;;;;;;;;5089944;28;20135;-61
2021/12/28 10:11:44;;;;;;;56.13;24.20;;;;;;;;;;5079503;28;20075;-61
2021/12/28 10:14:13;;;;;;;63.90;25.45;;;;;;;;;;5091495;28;20119;-61
2021/12/28 10:16:47;;;;;;;46.85;24.60;;;;;;;;;;5101235;28;20047;-61
2021/12/28 10:19:31;;;;;;;64.93;24.50;;;;;;;;;;5109284;28;20123;-61
2021/12/28 10:21:58;;;;;;;63.97;26.98;;;;;;;;;;5106201;28;20067;-61
2021/12/28 10:24:34;;;;;;;50.55;24.55;;;;;;;;;;5104584;28;20466;-61
2021/12/28 10:27:11;;;;;;;68.28;27.00;;;;;;;;;;5087354;28;20104;-65
2021/12/28 10:29:37;;;;;;;59.67;27.58;;;;;;;;;;5090138;28;20051;-62
2021/12/28 10:32:16;;;;;;;54.50;26.52;;;;;;;;;;5090697;28;20139;-63
2021/12/28 10:34:45;;;;;;;64.70;27.50;;;;;;;;;;5089538;28;20051;-62
2021/12/28 10:37:16;;;;;;;47.58;25.40;;;;;;;;;;5098056;28;20047;-63
2021/12/28 10:39:43;;;;;;;47.75;24.02;;;;;;;;;;5098974;28;20047;-62
2021/12/28 10:42:10;;;;;;;47.05;24.30;;;;;;;;;;5092487;28;20075;-63
2021/12/28 10:44:56;;;;;;;47.63;23.83;;;;;;;;;;5093851;28;20032;-63
2021/12/28 10:47:24;;;;;;;49.13;24.60;;;;;;;;;;5095732;28;20124;-63
2021/12/28 10:49:50;;;;;;;45.45;21.95;;;;;;;;;;5087462;28;20113;-61
2021/12/28 10:52:32;;;;;;;45.35;22.55;;;;;;;;;;5091569;28;20115;-61
2021/12/28 10:55:20;;;;;;;46.72;24.23;;;;;;;;;;5091101;28;20592;-62
2021/12/28 10:57:47;;;;;;;50.40;24.45;;;;;;;;;;5091881;28;20070;-62
2021/12/28 11:00:25;;;;;;;43.10;21.35;;;;;;;;;;5089429;28;20119;-62
2021/12/28 11:02:51;;;;;;;50.58;24.38;;;;;;;;;;5091621;28;20143;-62
2021/12/28 11:05:31;;;;;;;57.40;24.23;;;;;;;;;;5073514;28;20033;-61
2021/12/28 11:07:57;;;;;;;39.03;23.20;;;;;;;;;;5074107;28;20049;-61
2021/12/28 11:10:28;;;;;;;51.35;23.27;;;;;;;;;;5092331;28;20051;-69
2021/12/28 11:12:55;;;;;;;53.50;23.85;;;;;;;;;;5095233;28;20426;-61
2021/12/28 11:15:23;;;;;;;47.95;22.55;;;;;;;;;;5084740;28;20119;-61
2021/12/28 11:17:49;;;;;;;38.95;20.48;;;;;;;;;;5083371;28;20468;-61
2021/12/28 11:20:15;;;;;;;45.53;21.98;;;;;;;;;;5081754;28;20049;-61
2021/12/28 11:23:01;;;;;;;40.38;21.15;;;;;;;;;;5073426;28;20048;-63
2021/12/28 11:25:30;;;;;;;35.08;18.25;;;;;;;;;;5082678;28;20497;-62
2021/12/28 11:28:15;;;;;;;38.60;20.98;;;;;;;;;;5088597;28;20170;-62
2021/12/28 11:30:57;;;;;;;36.33;18.13;;;;;;;;;;5094174;28;20067;-63
2021/12/28 11:33:23;;;;;;;32.55;18.73;;;;;;;;;;5103185;28;20032;-62
2021/12/28 11:35:49;;;;;;;37.92;20.08;;;;;;;;;;5087346;28;20044;-62
2021/12/28 11:38:15;;;;;;;32.58;18.50;;;;;;;;;;5094119;28;20096;-62
2021/12/28 11:40:42;;;;;;;35.13;19.52;;;;;;;;;;5101631;28;20096;-62
2021/12/28 11:43:08;;;;;;;32.53;17.63;;;;;;;;;;5104847;28;20036;-62
2021/12/28 11:45:34;;;;;;;33.15;18.90;;;;;;;;;;5093132;28;20070;-61
2021/12/28 11:48:00;;;;;;;34.25;17.85;;;;;;;;;;5094553;28;20083;-62
2021/12/28 11:50:26;;;;;;;28.90;17.42;;;;;;;;;;5098143;28;20372;-62
2021/12/28 11:52:52;;;;;;;32.00;17.15;;;;;;;;;;5095029;28;20066;-61
2021/12/28 11:55:19;;;;;;;30.70;16.40;;;;;;;;;;5084498;28;20043;-62
2021/12/28 11:57:50;;;;;;;30.02;16.48;;;;;;;;;;5098632;28;20039;-61
2021/12/28 12:00:19;;;;;;;33.22;16.50;;;;;;;;;;5095735;28;20465;-62
2021/12/28 12:02:48;;;;;;;30.30;15.90;;;;;;;;;;5092522;28;20052;-61
2021/12/28 12:05:23;;;;;;;28.67;15.00;;;;;;;;;;5092073;28;20040;-61
2021/12/28 12:08:08;;;;;;;28.40;15.23;;;;;;;;;;5102113;28;20051;-61
2021/12/28 12:10:36;;;;;;;31.38;16.45;;;;;;;;;;5091986;28;20104;-61
2021/12/28 12:13:04;;;;;;;26.85;14.68;;;;;;;;;;5107860;28;20036;-61
2021/12/28 12:15:35;;;;;;;29.60;16.50;;;;;;;;;;5114295;28;20044;-61
2021/12/28 12:18:01;;;;;;;31.85;16.45;;;;;;;;;;5087563;28;20449;-61
2021/12/28 12:20:30;;;;;;;30.45;16.50;;;;;;;;;;5088735;28;20128;-62
2021/12/28 12:23:04;;;;;;;31.88;17.00;;;;;;;;;;5093494;28;20056;-61
2021/12/28 12:25:31;;;;;;;32.25;17.25;;;;;;;;;;5092377;28;20518;-61
2021/12/28 12:27:59;;;;;;;42.70;19.55;;;;;;;;;;5084229;28;20051;-61
2021/12/28 12:30:27;;;;;;;32.00;16.50;;;;;;;;;;5088892;28;20035;-61
2021/12/28 12:33:00;;;;;;;37.03;19.13;;;;;;;;;;5093468;28;20040;-61
2021/12/28 12:35:31;;;;;;;49.87;21.33;;;;;;;;;;5091199;28;20395;-61
2021/12/28 12:37:58;;;;;;;29.95;16.85;;;;;;;;;;5095083;28;20050;-61
2021/12/28 12:40:43;;;;;;;42.30;19.98;;;;;;;;;;5104221;28;20075;-61
2021/12/28 12:43:10;;;;;;;31.70;17.02;;;;;;;;;;5096228;28;20424;-62
2021/12/28 12:45:56;;;;;;;43.30;19.50;;;;;;;;;;5091735;28;20040;-62
2021/12/28 12:48:32;;;;;;;38.83;18.10;;;;;;;;;;5099992;28;20144;-61
2021/12/28 12:51:17;;;;;;;37.33;16.95;;;;;;;;;;5105143;28;20185;-61
2021/12/28 12:53:45;;;;;;;34.42;16.90;;;;;;;;;;5097323;28;20071;-61
2021/12/28 12:56:19;;;;;;;34.72;15.73;;;;;;;;;;5104999;28;21537;-61
2021/12/28 12:58:46;;;;;;;30.35;15.65;;;;;;;;;;5097830;28;20127;-61
2021/12/28 13:01:18;;;;;;;33.28;16.42;;;;;;;;;;5089805;28;20104;-62
2021/12/28 13:03:45;;;;;;;27.30;15.73;;;;;;;;;;5089272;28;20045;-62
2021/12/28 13:06:11;;;;;;;27.90;15.80;;;;;;;;;;5089943;28;20044;-62
2021/12/28 13:08:37;;;;;;;30.35;14.80;;;;;;;;;;5085208;28;20344;-62
2021/12/28 13:11:03;;;;;;;32.33;16.75;;;;;;;;;;5088478;28;20056;-63
2021/12/28 13:13:29;;;;;;;29.92;15.52;;;;;;;;;;5086327;28;20126;-62
2021/12/28 13:15:55;;;;;;;29.30;14.50;;;;;;;;;;5088067;28;20036;-62
2021/12/28 13:18:22;;;;;;;33.38;16.17;;;;;;;;;;5089607;28;20511;-62
2021/12/28 13:20:49;;;;;;;33.58;14.88;;;;;;;;;;5087605;28;20047;-62
2021/12/28 13:23:15;;;;;;;30.38;14.88;;;;;;;;;;5089910;28;20475;-62
2021/12/28 13:25:45;;;;;;;30.02;14.75;;;;;;;;;;5092689;28;20487;-62
2021/12/28 13:28:12;;;;;;;24.70;13.73;;;;;;;;;;5082714;28;20425;-62
2021/12/28 13:30:40;;;;;;;35.78;15.95;;;;;;;;;;5082739;28;20513;-62
2021/12/28 13:33:06;;;;;;;31.02;15.27;;;;;;;;;;5081351;28;20052;-62
2021/12/28 13:35:36;;;;;;;37.67;16.60;;;;;;;;;;5081303;28;20040;-63
2021/12/28 13:38:03;;;;;;;34.50;15.75;;;;;;;;;;5083750;28;20048;-65
2021/12/28 13:40:40;;;;;;;29.58;15.52;;;;;;;;;;5082990;28;20098;-64
2021/12/28 13:43:10;;;;;;;35.67;16.67;;;;;;;;;;5081335;28;20056;-64
2021/12/28 13:45:38;;;;;;;36.70;16.13;;;;;;;;;;5076198;28;20071;-64
2021/12/28 13:48:18;;;;;;;36.58;17.08;;;;;;;;;;5081648;28;20048;-65
2021/12/28 13:50:46;;;;;;;50.08;18.15;;;;;;;;;;5085526;28;20101;-64
2021/12/28 13:53:16;;;;;;;46.17;17.83;;;;;;;;;;5077913;28;20105;-64
2021/12/28 13:55:42;;;;;;;39.35;18.55;;;;;;;;;;5079240;28;20040;-66
2021/12/28 13:58:19;;;;;;;44.92;17.67;;;;;;;;;;5080582;28;20097;-63
2021/12/28 14:00:48;;;;;;;48.55;19.33;;;;;;;;;;5082832;28;20377;-64
2021/12/28 14:03:14;;;;;;;49.45;19.40;;;;;;;;;;5080269;28;20048;-64
2021/12/28 14:05:41;;;;;;;27.95;13.52;;;;;;;;;;5081525;28;20044;-64
2021/12/28 14:08:07;;;;;;;18.60;8.63;;;;;;;;;;5079802;28;20438;-63
2021/12/28 14:10:35;;;;;;;14.73;8.18;;;;;;;;;;5083173;28;20044;-64
2021/12/28 14:13:02;;;;;;;13.35;7.75;;;;;;;;;;5081900;28;20127;-63